LEIBLEAL

Guest
Details From LEIB - Ibiza
To LEAL - Alicante
Flight Number -
Tags generated
Created
Modified
Stats Distance 97 nm / 180 km
Max Altitude 10,300 ft / 3,139 m
Waypoints 5
Social Downloads 4
Likes 0
Share VATSIM

Download

Looking for another format? Having issues loading an existing format? Contact us
Advertisement - Login to hide

Notes

Basic altitude profile: - Ascent Rate: 2500ft/min - Ascent Speed: 250kts - Cruise Altitude: 35000ft - Cruise Speed: 420kts - Descent Rate: 1500ft/min - Descent Speed: 250kts Options: - Use NATs: yes - Use PACOTS: yes - Use low airways: yes - Use high airways: yes

Route

LEIB BRUNO B46 POLOP LEAL

ID Type Via Altitude Latitude Longitude Leg Dist Tot Dist Heading (true) Name
O LEIB APT - 0 ft / 0 m 38.87287˚ 1.37304˚ - 0 nm - Ibiza
BRUNO FIX - 10,300 ft / 3,139 m 38.60830˚ 0.48333˚ 44 nm 44 nm 249° / 249° -
MITOS FIX B46 (AWY-LO) 5,900 ft / 1,798 m 38.44945˚ -0.01372˚ 25 nm 69 nm 248° / 248° -
POLOP FIX B46 (AWY-LO) 4,100 ft / 1,250 m 38.39609˚ -0.17872˚ 8 nm 78 nm 248° / 248° -
O LEAL APT - 0 ft / 0 m 38.28217˚ -0.55816˚ 19 nm 97 nm 249° / 249° Alicante

Altitude Profile

Advertisement - Login to hide

LEIB

Details ICAO LEIB (IBZ)
Name Ibiza
Region Spain
Timezone Europe/Madrid (UTC+1.0)
Stats Elevation 20 ft / 6 m (AMSL)
Location 38.872871° 1.373045°
Runways 1
Magnetic Variation 0.662° E

METAR

LEIB 140600Z 25012KT CAVOK 14/09 Q1019 NOSIG

Decode

TAF

TAF LEIB 140200Z 1403/1503 27012KT 9999 FEW020 TX17/1412Z TN10/1406Z TEMPO 1404/1424 27015G25KT TEMPO 1416/1418 22014KT

Decode

Departure Runways

ID Width Length Bearing (true) Bearing (mag) Surface Threshold Offset Overrun Length
06 148 ft / 45 m 9,153 ft / 2,790 m 61.85° 61.19° Asphalt 0 ft / 0 m 213 ft / 65 m
24 148 ft / 45 m 9,153 ft / 2,790 m 241.86° 241.20° Asphalt 0 ft / 0 m 197 ft / 60 m

LEAL

Details ICAO LEAL (ALC)
Name Alicante
Region Spain
Timezone Europe/Madrid (UTC+1.0)
Stats Elevation 141 ft / 43 m (AMSL)
Location 38.282169° -0.558157°
Runways 1
Magnetic Variation 0.183° E

METAR

LEAL 140600Z 26010KT 240V300 CAVOK 12/03 Q1021 NOSIG

Decode

TAF

TAF TAF LEAL 140500Z 1406/1506 28014KT 9999 FEW030 TX20/1413Z TN08/1406Z TEMPO 1406/1414 29016G28KT BECMG 1420/1422 24010KT

Decode

Destination Runways

ID Width Length Bearing (true) Bearing (mag) Surface Threshold Offset Overrun Length
10 148 ft / 45 m 9,799 ft / 2,987 m 100.07° 99.89° Asphalt 0 ft / 0 m 164 ft / 50 m
28 148 ft / 45 m 9,799 ft / 2,987 m 280.09° 279.91° Asphalt 0 ft / 0 m 197 ft / 60 m

Approach Navaids

Runway Type Ident Frequency Range Bearing (true) Bearing (mag) Slope Elevation
10 Localiser IAT 110.30 MHz 18 nm / 33 km 100.09° 99.91° - 29 ft / 9 m (AMSL)
10 Glidescope IAT 110.30 MHz 10 nm / 19 km 100.09° 99.91° 3.00° 129 ft / 39 m (AMSL)
10 DME IAT 110.30 MHz 18 nm / 33 km - - - 129 ft / 39 m (AMSL)

Popular Alternatives